createdAt,value
2022-12-27T00:03:42.161Z,4.13
2022-12-27T00:08:47.162Z,4.45
2022-12-27T00:13:54.220Z,1.92
2022-12-27T00:18:58.589Z,7.07
2022-12-27T00:24:02.529Z,3.88
2022-12-27T00:29:08.130Z,5.00
2022-12-27T00:34:15.539Z,6.40
2022-12-27T00:44:24.465Z,6.55
2022-12-27T00:49:28.684Z,5.88
2022-12-27T00:54:32.635Z,4.05
2022-12-27T00:59:37.960Z,4.22
2022-12-27T01:04:42.071Z,2.78
2022-12-27T01:09:46.074Z,3.65
2022-12-27T01:14:52.611Z,2.90
2022-12-27T01:19:56.792Z,2.70
2022-12-27T01:25:00.680Z,1.15
2022-12-27T01:30:07.358Z,1.02
2022-12-27T01:35:11.455Z,1.10
2022-12-27T01:40:15.608Z,4.00
2022-12-27T01:45:22.208Z,2.40
2022-12-27T01:50:33.982Z,1.77
2022-12-27T01:55:44.171Z,0.57
2022-12-27T02:00:50.283Z,1.33
2022-12-27T02:05:54.540Z,1.65
2022-12-27T02:10:59.783Z,2.95
2022-12-27T02:16:12.189Z,1.08
2022-12-27T02:21:43.103Z,2.05
2022-12-27T02:26:51.655Z,1.27
2022-12-27T02:32:03.372Z,1.23
2022-12-27T02:37:11.604Z,1.80
2022-12-27T02:42:34.943Z,3.42
2022-12-27T02:47:57.957Z,1.70
2022-12-27T02:53:11.528Z,1.88
2022-12-27T02:58:29.347Z,0.52
2022-12-27T03:08:57.497Z,1.65
2022-12-27T03:14:25.931Z,1.23
2022-12-27T03:19:58.029Z,1.85
2022-12-27T03:25:22.164Z,1.42
2022-12-27T03:30:43.451Z,1.90
2022-12-27T03:36:08.008Z,1.83
2022-12-27T03:41:34.151Z,0.68
2022-12-27T03:46:43.537Z,0.57
2022-12-27T03:51:52.512Z,1.30
2022-12-27T03:56:58.983Z,1.15
2022-12-27T04:02:03.701Z,2.73
2022-12-27T04:07:09.437Z,2.92
2022-12-27T04:12:30.971Z,1.95
2022-12-27T04:17:52.524Z,2.35
2022-12-27T04:23:15.460Z,1.02
2022-12-27T04:28:36.968Z,1.48
2022-12-27T04:33:58.800Z,1.20
2022-12-27T04:39:04.964Z,0.43
2022-12-27T04:44:26.466Z,1.27
2022-12-27T04:49:48.080Z,1.73
2022-12-27T04:54:59.162Z,1.55
2022-12-27T05:00:35.252Z,4.57
2022-12-27T05:05:40.577Z,3.65
2022-12-27T05:11:03.631Z,3.33
2022-12-27T05:16:09.805Z,0.60
2022-12-27T05:21:13.753Z,0.80
2022-12-27T05:26:23.977Z,0.63
2022-12-27T05:31:29.729Z,3.88
2022-12-27T05:36:34.240Z,1.98
2022-12-27T05:41:39.629Z,3.20
2022-12-27T05:46:43.594Z,3.63
2022-12-27T05:51:47.567Z,4.22
2022-12-27T05:56:53.059Z,2.13
2022-12-27T06:01:57.120Z,2.05
2022-12-27T06:07:01.171Z,3.08
2022-12-27T06:12:07.744Z,2.03
2022-12-27T06:17:11.741Z,3.85
2022-12-27T06:22:15.730Z,2.22
2022-12-27T06:27:21.023Z,2.85
2022-12-27T06:32:24.981Z,2.13
2022-12-27T06:37:30.788Z,4.20
2022-12-27T06:42:36.040Z,2.00
2022-12-27T06:47:40.216Z,3.33
2022-12-27T06:52:44.106Z,2.97
2022-12-27T06:57:50.056Z,3.67
2022-12-27T07:02:54.058Z,3.33
2022-12-27T07:07:58.076Z,4.53
2022-12-27T07:13:03.923Z,3.40
2022-12-27T07:18:07.814Z,6.45
2022-12-27T07:23:19.100Z,18.48
2022-12-27T07:28:24.769Z,6.07
2022-12-27T07:33:28.771Z,4.50
2022-12-27T07:38:32.686Z,5.25
2022-12-27T07:43:38.026Z,4.38
2022-12-27T07:48:42.829Z,4.28
2022-12-27T07:53:49.296Z,4.28
2022-12-27T07:58:56.047Z,5.22
2022-12-27T08:06:54.347Z,5.35
2022-12-27T08:11:59.528Z,5.83
2022-12-27T08:17:07.295Z,4.53
2022-12-27T08:22:12.803Z,5.63
2022-12-27T08:27:24.174Z,5.30
2022-12-27T08:32:28.375Z,5.00
2022-12-27T08:37:34.196Z,6.15
2022-12-27T08:42:38.114Z,10.52
2022-12-27T08:47:42.064Z,7.78
2022-12-27T08:52:47.392Z,8.65
2022-12-27T08:57:51.355Z,12.07
2022-12-27T09:02:55.527Z,10.68
2022-12-27T09:08:00.830Z,7.90
2022-12-27T09:13:04.971Z,6.25
2022-12-27T09:18:09.000Z,5.15
2022-12-27T09:23:15.891Z,5.60
2022-12-27T09:28:19.826Z,9.35
2022-12-27T09:33:23.785Z,6.30
2022-12-27T09:38:29.159Z,3.00
2022-12-27T09:43:41.963Z,3.58
2022-12-27T09:48:46.696Z,4.10
2022-12-27T09:53:58.662Z,4.68
2022-12-27T09:59:08.002Z,5.82
2022-12-27T10:46:35.329Z,3.55
2022-12-27T10:51:43.435Z,5.47
2022-12-27T10:56:50.829Z,6.57
2022-12-27T11:07:19.795Z,3.53
2022-12-27T11:12:26.101Z,4.47
2022-12-27T11:17:38.102Z,5.38
2022-12-27T11:22:46.713Z,4.60
2022-12-27T11:27:54.747Z,4.00
2022-12-27T11:33:05.085Z,3.90
2022-12-27T11:38:23.434Z,3.70
2022-12-27T11:43:34.815Z,2.17
2022-12-27T11:48:43.365Z,1.92
2022-12-27T11:54:06.117Z,1.20
2022-12-27T11:59:40.296Z,1.45
2022-12-27T12:05:03.044Z,1.60
2022-12-27T12:10:16.408Z,1.73
2022-12-27T12:15:57.903Z,3.90
2022-12-27T12:21:24.708Z,0.88
2022-12-27T12:26:36.752Z,0.85
2022-12-27T12:32:04.483Z,3.58
2022-12-27T12:37:23.357Z,1.40
2022-12-27T12:42:40.991Z,2.70
2022-12-27T12:48:08.821Z,1.38
2022-12-27T12:53:31.428Z,4.68
2022-12-27T12:58:50.592Z,1.45
2022-12-27T13:04:19.440Z,0.82
2022-12-27T13:09:34.991Z,1.38
2022-12-27T13:14:56.360Z,1.42
2022-12-27T13:20:14.918Z,0.30
2022-12-27T13:25:26.682Z,1.30
2022-12-27T13:30:40.305Z,1.05
2022-12-27T13:35:57.871Z,1.25
2022-12-27T13:41:26.345Z,1.65
2022-12-27T13:47:04.827Z,3.67
2022-12-27T13:52:18.397Z,1.65
2022-12-27T13:58:06.128Z,3.13
2022-12-27T14:03:48.319Z,1.70
2022-12-27T14:09:25.622Z,8.07
2022-12-27T14:19:57.965Z,3.08
2022-12-27T14:25:52.702Z,4.03
2022-12-27T14:31:30.347Z,3.42
2022-12-27T14:37:26.562Z,1.02
2022-12-27T14:43:04.429Z,1.27
2022-12-27T14:48:46.189Z,2.83
2022-12-27T14:54:18.422Z,1.23
2022-12-27T14:59:33.723Z,1.05
2022-12-27T15:04:56.812Z,2.90
2022-12-27T15:10:10.666Z,1.83
2022-12-27T15:15:23.718Z,5.15
2022-12-27T15:20:49.021Z,0.95
2022-12-27T15:26:02.842Z,3.33
2022-12-27T15:31:13.945Z,2.47
2022-12-27T15:36:21.121Z,2.25
2022-12-27T15:41:32.713Z,1.15
2022-12-27T15:47:10.604Z,0.73
2022-12-27T15:52:25.348Z,0.50
2022-12-27T15:58:06.892Z,0.65
2022-12-27T16:03:35.375Z,1.27
2022-12-27T16:08:42.463Z,1.05
2022-12-27T16:13:49.359Z,1.67
2022-12-27T16:19:23.218Z,0.50
2022-12-27T16:24:29.359Z,4.25
2022-12-27T16:29:36.298Z,5.35
2022-12-27T16:34:41.690Z,11.75
2022-12-27T16:40:05.192Z,2.08
2022-12-27T16:45:34.323Z,2.00
2022-12-27T16:51:03.946Z,0.93
2022-12-27T16:56:22.398Z,1.08
2022-12-27T17:01:55.286Z,0.82
2022-12-27T17:06:59.242Z,1.25
2022-12-27T17:12:13.123Z,0.77
2022-12-27T17:17:23.078Z,1.30
2022-12-27T17:22:34.215Z,1.48
2022-12-27T17:28:06.645Z,0.57
2022-12-27T17:33:39.969Z,0.95
2022-12-27T17:38:53.905Z,0.38
2022-12-27T17:44:26.579Z,1.40
2022-12-27T17:49:35.213Z,0.60
2022-12-27T17:54:56.963Z,0.90
2022-12-27T18:00:02.308Z,0.22
2022-12-27T18:05:16.864Z,0.60
2022-12-27T18:10:27.698Z,0.17
2022-12-27T18:15:36.921Z,0.40
2022-12-27T18:20:42.545Z,0.47
2022-12-27T18:25:58.094Z,0.28
2022-12-27T18:31:08.070Z,0.38
2022-12-27T18:36:20.873Z,0.47
2022-12-27T18:41:25.934Z,0.52
2022-12-27T18:46:33.538Z,1.00
2022-12-27T18:51:39.304Z,2.20
2022-12-27T18:56:43.824Z,2.58
2022-12-27T19:01:49.477Z,0.22
2022-12-27T19:07:05.126Z,0.28
2022-12-27T19:12:22.664Z,0.25
2022-12-27T19:17:31.307Z,0.98
2022-12-27T19:22:44.509Z,0.70
2022-12-27T19:27:58.970Z,0.22
2022-12-27T19:33:10.026Z,0.20
2022-12-27T19:38:21.747Z,0.10
2022-12-27T19:43:26.997Z,0.17
2022-12-27T19:48:32.337Z,0.10
2022-12-27T19:53:39.760Z,1.33
2022-12-27T20:03:48.577Z,0.57
2022-12-27T20:08:52.598Z,0.98
2022-12-27T20:13:56.547Z,0.88
2022-12-27T20:19:02.545Z,1.08
2022-12-27T20:24:07.318Z,1.77
2022-12-27T20:29:12.498Z,0.70
2022-12-27T20:34:17.778Z,0.85
2022-12-27T20:39:22.305Z,0.13
2022-12-27T20:44:27.817Z,0.47
2022-12-27T20:49:33.334Z,1.90
2022-12-27T20:54:37.185Z,3.33
2022-12-27T20:59:41.203Z,1.98
2022-12-27T21:04:46.461Z,0.47
2022-12-27T21:09:52.883Z,0.43
2022-12-27T21:14:56.811Z,0.10
2022-12-27T21:20:02.125Z,0.57
2022-12-27T21:25:06.886Z,0.22
2022-12-27T21:30:13.431Z,0.15
2022-12-27T21:35:18.901Z,0.60
2022-12-27T21:40:22.894Z,0.20
2022-12-27T21:45:30.679Z,0.38
2022-12-27T21:50:37.488Z,0.10
2022-12-27T21:55:41.518Z,0.20
2022-12-27T22:00:45.522Z,0.68
2022-12-27T22:05:50.897Z,0.52
2022-12-27T22:10:58.394Z,0.50
2022-12-27T22:21:09.778Z,0.35
2022-12-27T22:26:16.744Z,1.67
2022-12-27T22:31:23.116Z,2.88
2022-12-27T22:36:28.921Z,1.83
2022-12-27T22:41:34.536Z,1.23
2022-12-27T22:52:04.755Z,0.60
2022-12-27T22:57:08.638Z,3.55
2022-12-27T23:02:12.869Z,5.10
2022-12-27T23:07:20.165Z,3.45
2022-12-27T23:12:24.503Z,3.42
2022-12-27T23:17:28.573Z,3.22
2022-12-27T23:22:34.069Z,2.17
2022-12-27T23:27:38.190Z,1.60
2022-12-27T23:32:42.262Z,2.20
2022-12-27T23:37:47.662Z,2.85
2022-12-27T23:42:51.586Z,2.45
2022-12-27T23:47:55.480Z,2.55
2022-12-27T23:53:00.746Z,3.28
2022-12-27T23:58:04.617Z,2.42
